Latest Weather Observations for Pallamana

IDS60801

Issued at 12:01 pm CST Wednesday 2 September 2015 (issued every 30 minutes, with the page automatically refreshed every 10 minutes)

About weather observations | Map of weather stations | Latest weather observations for SA | Other Formats
Station Details ID: 024584 Name: PALLAMANA AERODROME Lat: -35.06 Lon: 139.23 Height: 45.0 m
Data from the previous 72 hours. | See also: Recent months at Pallamana
Date/Time
CST
Temp
°C
App
Temp
°C
Dew
Point
Rel
Hum
%
Delta-T
°C
Wind Press
QNH
hPa
Press
MSL
hPa
Rain
since 9 am
mm
Dir
 
Spd
km/h
Gust
km/h
Spd
kts
Gust
kts
02/12:00pm 15.5 9.2 5.5 51 4.8 N 28 37 15 20 1003.4 1003.4 0.0
02/11:30am 15.5 9.9 7.3 58 4.1 N 26 33 14 18 1004.2 1004.2 0.0
02/11:00am 15.7 9.4 7.5 58 4.1 N 30 39 16 21 1004.6 1004.6 0.0
02/10:30am 13.8 7.9 7.5 66 3.1 N 28 35 15 19 1005.0 1005.0 0.0
02/10:00am 13.4 8.1 8.4 72 2.5 N 26 33 14 18 1005.5 1005.5 0.0
02/09:30am 11.7 7.2 8.5 81 1.6 N 22 33 12 18 1005.8 1005.8 0.0
02/09:00am 10.7 6.3 9.1 90 0.8 NNE 22 30 12 16 1006.0 1006.0 2.8
02/08:30am 10.3 6.5 9.1 92 0.6 NNE 19 26 10 14 1005.9 1005.9 2.8
02/08:00am 10.0 6.5 8.8 92 0.6 NNE 17 22 9 12 1005.9 1005.9 2.8
02/07:30am 9.5 6.3 8.5 93 0.5 N 15 19 8 10 1005.5 1005.5 2.8
02/07:00am 9.5 6.3 8.3 92 0.6 N 15 17 8 9 1005.6 1005.6 2.8
02/06:30am 9.7 6.1 8.5 92 0.6 N 17 20 9 11 1005.6 1005.6 2.8
02/06:00am 9.8 5.3 8.6 92 0.6 N 22 28 12 15 1005.8 1005.8 2.8
02/05:30am 9.7 6.6 8.7 93 0.5 NNE 15 20 8 11 1005.7 1005.7 2.8
02/05:00am 9.7 5.8 8.7 93 0.5 NNE 19 24 10 13 1006.1 1006.1 2.8
02/04:30am 9.6 6.1 8.6 93 0.5 NE 17 20 9 11 1006.0 1006.0 2.8
02/04:00am 9.8 7.3 8.2 90 0.8 N 11 15 6 8 1006.5 1006.5 1.4
02/03:30am 9.8 7.3 8.4 91 0.7 N 11 13 6 7 1006.6 1006.6 1.2
02/03:00am 9.7 6.1 8.3 91 0.7 NNE 17 20 9 11 1006.5 1006.5 1.2
02/02:30am 10.1 6.1 8.3 88 0.9 NNE 19 24 10 13 1007.2 1007.2 1.2
02/02:00am 10.3 6.7 8.3 87 1.0 NNE 17 20 9 11 1007.6 1007.6 1.2
02/01:30am 10.7 6.1 8.3 85 1.2 N 22 26 12 14 1008.1 1008.1 1.0
02/01:00am 10.6 6.2 7.3 80 1.6 N 20 28 11 15 1008.4 1008.4 0.6
02/12:30am 13.0 7.4 3.7 53 4.2 N 22 30 12 16 1008.3 1008.3 0.2
02/12:00am 13.0 8.0 3.7 53 4.2 N 19 24 10 13 1008.2 1008.2 0.2
 
Date/Time
CST
Temp
°C
App
Temp
°C
Dew
Point
Rel
Hum
%
Delta-T
°C
Wind Press
QNH
hPa
Press
MSL
hPa
Rain
since 9 am
mm
Dir
 
Spd
km/h
Gust
km/h
Spd
kts
Gust
kts
01/11:30pm 13.1 7.1 3.6 52 4.3 N 24 32 13 17 1008.3 1008.3 0.2
01/11:00pm 13.4 8.3 0.7 42 5.4 N 17 22 9 12 1008.4 1008.4 0.0
01/10:30pm 13.1 7.5 0.2 41 5.4 N 19 22 10 12 1008.4 1008.4 0.0
01/10:00pm 12.5 7.4 0.6 44 5.0 NNW 17 20 9 11 1008.3 1008.3 0.0
01/09:30pm 12.4 7.6 0.1 43 5.1 NNW 15 17 8 9 1008.5 1008.5 0.0
01/09:00pm 13.9 8.7 -0.2 38 5.9 NNE 17 22 9 12 1008.5 1008.5 0.0
01/08:30pm 14.7 9.5 0.1 37 6.2 N 17 20 9 11 1008.6 1008.6 0.0
01/08:00pm 14.4 9.4 1.6 42 5.6 NNE 17 20 9 11 1008.5 1008.5 0.0
01/07:30pm 14.1 11.2 4.6 52 4.4 NE 9 11 5 6 1008.3 1008.3 0.0
01/07:00pm 15.2 10.9 3.4 45 5.4 NNE 15 17 8 9 1008.3 1008.3 0.0
01/06:30pm 15.1 12.9 6.2 55 4.3 NNW 7 11 4 6 1008.4 1008.4 0.0
01/06:00pm 15.3 12.4 6.5 55 4.3 N 11 13 6 7 1008.5 1008.5 0.0
01/05:30pm 16.8 13.5 6.2 49 5.2 N 13 15 7 8 1008.6 1008.6 0.0
01/05:00pm 17.9 13.5 4.8 42 6.3 NNW 17 20 9 11 1008.5 1008.5 0.0
01/04:30pm 18.7 14.2 4.0 37 7.0 N 17 22 9 12 1008.7 1008.7 0.0
01/04:00pm 18.8 14.0 4.7 39 6.8 N 19 26 10 14 1008.8 1008.8 0.0
01/03:30pm 19.5 17.6 6.6 43 6.5 NNW 6 9 3 5 1009.0 1009.0 0.0
01/03:00pm 19.7 17.1 6.3 41 6.7 NNW 9 13 5 7 1009.4 1009.4 0.0
01/02:30pm 19.8 16.7 5.7 39 7.0 N 11 15 6 8 1009.7 1009.7 0.0
01/02:00pm 18.8 15.4 6.1 43 6.3 NNE 13 17 7 9 1010.2 1010.2 0.0
01/01:30pm 18.8 15.4 5.8 42 6.4 NNE 13 17 7 9 1010.5 1010.5 0.0
01/01:00pm 17.1 12.8 5.3 45 5.7 NNE 17 20 9 11 1011.3 1011.3 0.0
01/12:30pm 17.5 13.5 4.7 42 6.1 NE 15 20 8 11 1011.8 1011.8 0.0
01/12:00pm 15.8 11.8 4.8 48 5.2 NNE 15 20 8 11 1012.5 1012.5 0.0
01/11:30am 15.2 10.8 5.0 50 4.8 N 17 20 9 11 1013.0 1013.0 0.0
01/11:00am 14.2 10.4 5.8 57 4.0 NNE 15 20 8 11 1013.4 1013.4 0.0
01/10:30am 11.3 8.4 6.7 73 2.2 NNW 11 13 6 7 1013.9 1013.9 0.0
01/10:00am 9.5 6.0 5.3 75 1.9 N 13 17 7 9 1014.3 1014.3 0.0
01/09:30am 8.4 5.2 5.0 79 1.5 N 11 13 6 7 1014.4 1014.4 0.0
01/09:00am 7.0 4.5 3.5 78 1.5 N 6 9 3 5 1014.8 1014.8 0.0
01/08:30am 6.5 3.0 3.4 80 1.3 NNE 11 13 6 7 1014.9 1014.9 0.0
01/08:00am 6.4 3.2 3.3 80 1.3 N 9 13 5 7 1014.9 1014.9 0.0
01/07:30am 5.8 2.1 2.6 80 1.3 N 11 13 6 7 1014.6 1014.6 0.0
01/07:00am 5.2 1.1 2.5 83 1.1 NNW 13 17 7 9 1014.4 1014.4 0.0
01/06:30am 4.4 0.3 2.2 86 0.9 NNW 13 15 7 8 1013.8 1013.8 0.0
01/06:00am 4.2 0.1 2.2 87 0.8 NNW 13 15 7 8 1014.1 1014.1 0.0
01/05:30am 3.8 0.0 1.8 87 0.8 NNW 11 13 6 7 1014.1 1014.1 0.0
01/05:00am 3.5 0.1 1.7 88 0.7 NNW 9 13 5 7 1014.2 1014.2 0.0
01/04:30am 4.0 -0.1 2.0 87 0.8 NNW 13 15 7 8 1014.3 1014.3 0.0
01/04:00am 2.7 -0.8 1.4 91 0.5 NNW 9 11 5 6 1014.5 1014.5 0.0
01/03:30am 2.1 -0.9 1.0 92 0.4 N 6 7 3 4 1014.6 1014.6 0.0
01/03:00am 2.0 -1.2 0.9 92 0.4 N 7 9 4 5 1015.1 1015.1 0.0
01/02:30am 1.1 -2.3 -0.3 90 0.5 NW 7 9 4 5 1015.5 1015.5 0.0
01/02:00am 1.5 -1.8 -0.1 89 0.6 NNW 7 9 4 5 1015.7 1015.7 0.0
01/01:30am 2.6 -0.9 1.3 91 0.5 NW 9 13 5 7 1016.2 1016.2 0.0
01/01:00am 2.0 -0.3 0.4 89 0.6 NW 2 7 1 4 1016.3 1016.3 0.0
01/12:30am 3.6 1.8 1.5 86 0.8 CALM 0 0 0 0 1016.5 1016.5 0.0
01/12:00am 3.8 2.0 1.5 85 0.9 CALM 0 0 0 0 1016.7 1016.7 0.0
 
Date/Time
CST
Temp
°C
App
Temp
°C
Dew
Point
Rel
Hum
%
Delta-T
°C
Wind Press
QNH
hPa
Press
MSL
hPa
Rain
since 9 am
mm
Dir
 
Spd
km/h
Gust
km/h
Spd
kts
Gust
kts
31/11:30pm 2.6 0.6 0.2 84 0.9 CALM 0 0 0 0 1017.1 1017.1 0.0
31/11:00pm 3.5 1.7 0.9 83 1.0 CALM 0 0 0 0 1017.3 1017.3 0.0
31/10:30pm 4.9 3.4 3.2 89 0.7 CALM 0 0 0 0 1017.8 1017.8 0.0
31/10:00pm 4.6 3.0 2.6 87 0.8 CALM 0 0 0 0 1018.1 1018.1 0.0
31/09:30pm 3.5 1.7 1.4 86 0.8 CALM 0 4 0 2 1018.1 1018.1 0.0
31/09:00pm 6.4 3.3 3.6 82 1.2 W 9 13 5 7 1018.2 1018.2 0.0
31/08:30pm 6.0 4.5 2.9 80 1.3 CALM 0 2 0 1 1018.0 1018.0 0.0
31/08:00pm 7.1 3.8 2.2 71 2.0 WSW 9 11 5 6 1018.1 1018.1 0.0
31/07:30pm 8.9 6.6 2.8 65 2.6 SSW 4 7 2 4 1017.8 1017.8 0.0
31/07:00pm 10.6 8.0 3.3 60 3.2 S 6 7 3 4 1017.5 1017.5 0.0
31/06:30pm 11.2 8.5 3.8 60 3.3 SSE 7 9 4 5 1017.4 1017.4 0.0
31/06:00pm 12.2 9.2 4.2 58 3.6 S 9 13 5 7 1017.3 1017.3 0.0
31/05:30pm 14.3 11.2 5.4 55 4.2 SSW 11 15 6 8 1017.3 1017.3 0.0
31/05:00pm 16.7 12.9 4.1 43 5.9 S 13 19 7 10 1017.2 1017.2 0.0
31/04:30pm 19.4 16.8 3.2 34 7.6 WSW 6 9 3 5 1017.2 1017.2 0.0
31/04:00pm 19.8 16.5 2.2 31 8.1 NNW 9 13 5 7 1017.2 1017.2 0.0
31/03:30pm 19.8 16.4 1.6 29 8.3 N 9 15 5 8 1017.3 1017.3 0.0
31/03:00pm 20.0 16.2 1.9 30 8.3 NW 11 17 6 9 1017.7 1017.7 0.0
31/02:30pm 20.2 17.3 2.6 31 8.2 NNW 7 11 4 6 1017.8 1017.8 0.0
31/02:00pm 19.5 16.3 3.0 33 7.7 WSW 9 24 5 13 1018.1 1018.1 0.0
31/01:30pm 19.0 16.2 3.1 34 7.4 SSW 7 13 4 7 1018.4 1018.4 0.0
31/01:00pm 18.9 15.6 2.6 33 7.5 N 9 19 5 10 1018.9 1018.9 0.0
31/12:30pm 18.1 15.4 3.8 38 6.7 E 7 11 4 6 1019.3 1019.3 0.0
31/12:00pm 17.5 14.4 3.8 40 6.4 SE 9 13 5 7 1019.9 1019.9 0.0
31/11:30am 17.0 14.0 3.9 41 6.1 NE 9 15 5 8 1020.5 1020.5 0.0
31/11:00am 15.4 12.4 4.2 47 5.2 NE 9 17 5 9 1021.0 1021.0 0.0
31/10:30am 13.5 9.7 4.0 52 4.3 NNE 13 17 7 9 1021.2 1021.2 0.0
31/10:00am 12.2 8.4 3.7 56 3.8 NNE 13 19 7 10 1021.6 1021.6 0.0
31/09:30am 10.5 5.8 3.4 61 3.1 NNE 17 20 9 11 1021.8 1021.9 0.0
31/09:00am 8.4 4.7 4.3 75 1.8 NNE 13 15 7 8 1021.9 1022.0 0.0
31/08:30am 5.4 2.3 3.7 89 0.7 N 9 11 5 6 1022.1 1022.2 0.0
31/08:00am 3.0 -0.4 1.7 91 0.5 N 9 11 5 6 1022.0 1022.1 0.0
31/07:30am -1.0 - - - - NNW 2 7 1 4 1022.0 1022.1 0.0
31/07:00am -2.5 - - - - NNW 7 9 4 5 1021.9 1022.0 0.0
31/06:30am -1.8 - - - - NNW 7 9 4 5 1021.8 1021.9 0.0
31/06:00am -1.9 - - - - NNW 7 9 4 5 1021.9 1022.0 0.0
31/05:30am -2.7 - - - - CALM 0 0 0 0 1021.9 1022.0 0.0
31/05:00am -2.2 - - - - CALM 0 0 0 0 1021.9 1022.0 0.0
31/04:30am -1.4 - - - - NNW 7 7 4 4 1021.9 1022.0 0.0
31/04:00am -1.6 - - - - CALM 0 0 0 0 1021.9 1022.0 0.0
31/03:30am -2.0 - - - - NNW 2 6 1 3 1022.2 1022.3 0.0
31/03:00am -0.4 - - - - N 6 7 3 4 1022.3 1022.4 0.0
31/02:30am -0.7 - - - - N 7 11 4 6 1022.5 1022.6 0.0
31/02:00am -0.5 - - - - WNW 2 6 1 3 1022.8 1022.9 0.0
31/01:30am 0.3 - - - - WNW 4 9 2 5 1023.2 1023.3 0.0
31/01:00am 1.6 -2.1 0.0 89 0.6 WNW 9 13 5 7 1023.4 1023.5 0.0
31/12:30am 0.7 -2.5 -0.4 92 0.4 WNW 6 11 3 6 1023.3 1023.4 0.0
31/12:00am 0.7 -3.0 -0.1 94 0.3 WNW 9 11 5 6 1023.1 1023.2 0.0
 
Date/Time
CST
Temp
°C
App
Temp
°C
Dew
Point
Rel
Hum
%
Delta-T
°C
Wind Press
QNH
hPa
Press
MSL
hPa
Rain
since 9 am
mm
Dir
 
Spd
km/h
Gust
km/h
Spd
kts
Gust
kts
30/11:30pm 0.7 -2.5 -0.7 90 0.5 W 6 9 3 5 1023.5 1023.6 0.0
30/11:00pm 2.1 -0.9 0.5 89 0.6 WSW 6 7 3 4 1023.8 1023.9 0.0
30/10:30pm 4.7 1.9 2.2 84 1.0 WSW 6 7 3 4 1024.1 1024.2 0.0
30/10:00pm 2.5 -0.5 0.6 87 0.7 W 6 7 3 4 1024.2 1024.3 0.0
30/09:30pm 5.4 2.0 1.9 78 1.4 WSW 9 11 5 6 1024.6 1024.7 0.0
30/09:00pm 5.7 1.6 2.2 78 1.4 WSW 13 15 7 8 1024.6 1024.7 0.0
30/08:30pm 5.6 2.3 2.4 80 1.3 SSW 9 11 5 6 1024.2 1024.3 0.0
30/08:00pm 6.1 2.5 2.7 79 1.4 S 11 15 6 8 1024.1 1024.2 0.0
30/07:30pm 6.1 2.7 2.1 75 1.6 S 9 11 5 6 1023.8 1023.9 0.0
30/07:00pm 7.8 4.4 1.9 66 2.4 S 9 9 5 5 1023.6 1023.7 0.0
30/06:30pm 9.5 6.8 2.7 62 2.9 SE 6 7 3 4 1023.5 1023.6 0.0
30/06:00pm 10.3 7.2 3.4 62 3.0 ESE 9 11 5 6 1023.3 1023.4 0.0
30/05:30pm 12.4 9.5 4.5 58 3.6 E 9 11 5 6 1023.1 1023.2 0.0
30/05:00pm 14.5 11.6 2.5 44 5.3 ENE 7 11 4 6 1022.9 1023.0 0.0
30/04:30pm 15.2 12.2 1.7 40 5.9 NNE 7 11 4 6 1022.9 1023.0 0.0
30/04:00pm 15.3 11.9 1.6 39 6.0 NNE 9 13 5 7 1023.1 1023.2 0.0
30/03:30pm 15.1 12.1 2.2 41 5.7 E 7 13 4 7 1023.1 1023.2 0.0
30/03:00pm 15.7 12.8 1.5 38 6.2 N 6 13 3 7 1023.6 1023.7 0.0
30/02:30pm 15.4 12.0 2.0 40 5.9 NNW 9 15 5 8 1023.9 1024.0 0.0
30/02:00pm 15.2 11.8 1.7 40 5.9 NNW 9 13 5 7 1024.2 1024.3 0.0
30/01:30pm 14.7 11.4 2.2 43 5.5 NNW 9 15 5 8 1024.7 1024.8 0.0
30/01:00pm 14.5 11.2 2.5 44 5.3 NE 9 15 5 8 1025.2 1025.3 0.0
30/12:30pm 13.5 10.6 2.6 47 4.8 ENE 7 15 4 8 1025.7 1025.8 0.0

Other Formats:

Comma delimited format used in spreadsheet applications
http://www.bom.gov.au/fwo/IDS60801/IDS60801.95818.axf

JavaScript Object Notation format (JSON) in row-major order
http://www.bom.gov.au/fwo/IDS60801/IDS60801.95818.json